LIRA/CIA METAR and TAF weather

Enter ICAO airport designator
Station Type Date Time Source
LIRA METAR 2022/08/16 18:50 UTC NOAA

LIRA 161850Z 22006KT CAVOK 27/23 Q1012


Station Type Date Time Source
LIRA Decoded METAR 2022/08/16 18:50 UTC NOAA

Roma / Ciampino, Italy (LIRA) 41-47N 012-35E 105M
Aug 16, 2022 - 02:50 PM EDT / 2022.08.16 1850 UTC
Wind: from the SW (220 degrees) at 7 MPH (6 KT):0
Visibility: greater than 7 mile(s):0
Temperature: 80 F (27 C)
Dew Point: 73 F (23 C)
Relative Humidity: 78%
Pressure (altimeter): 29.88 in. Hg (1012 hPa)
ob: LIRA 161850Z 22006KT CAVOK 27/23 Q1012
cycle: 19

Station Type Date Time Source
LIRA TAF 2022/08/16 18:21 UTC NOAA

TAF LIRA 161700Z 1618/1718 22010KT 9999 SCT030
BECMG 1618/1620 VRB04KT
BECMG 1708/1710 17013KT

Example: see airport list